createdAt,value
2019-02-14T00:00:07.896Z,9.70
2019-02-14T00:01:13.655Z,9.13
2019-02-14T00:02:20.565Z,8.88
2019-02-14T00:03:25.830Z,9.00
2019-02-14T00:04:31.102Z,9.40
2019-02-14T00:05:36.402Z,9.23
2019-02-14T00:06:41.374Z,9.90
2019-02-14T00:07:46.104Z,9.10
2019-02-14T00:08:51.331Z,9.05
2019-02-14T00:09:56.044Z,9.05
2019-02-14T00:11:01.320Z,9.60
2019-02-14T00:12:06.584Z,9.25
2019-02-14T00:13:12.120Z,8.70
2019-02-14T00:14:17.405Z,10.03
2019-02-14T00:15:22.116Z,8.85
2019-02-14T00:16:27.086Z,9.73
2019-02-14T00:17:32.013Z,9.23
2019-02-14T00:18:37.290Z,9.98
2019-02-14T00:19:42.266Z,9.03
2019-02-14T00:20:47.640Z,9.20
2019-02-14T00:21:52.598Z,9.53
2019-02-14T00:22:57.599Z,9.23
2019-02-14T00:24:02.901Z,9.05
2019-02-14T00:25:07.511Z,8.43
2019-02-14T00:26:12.814Z,9.18
2019-02-14T00:27:17.856Z,9.05
2019-02-14T00:28:22.876Z,8.88
2019-02-14T00:29:28.092Z,9.35
2019-02-14T00:30:33.069Z,9.90
2019-02-14T00:31:38.458Z,9.70
2019-02-14T00:32:44.059Z,9.35
2019-02-14T00:33:49.362Z,9.53
2019-02-14T00:34:54.649Z,9.45
2019-02-14T00:36:00.197Z,9.03
2019-02-14T00:37:05.183Z,9.30
2019-02-14T00:38:10.806Z,9.28
2019-02-14T00:39:16.084Z,9.88
2019-02-14T00:40:21.623Z,10.00
2019-02-14T00:41:26.677Z,10.32
2019-02-14T00:42:32.036Z,10.35
2019-02-14T00:43:36.995Z,10.30
2019-02-14T00:44:42.261Z,10.18
2019-02-14T00:45:47.308Z,10.40
2019-02-14T00:46:52.565Z,9.50
2019-02-14T00:47:57.592Z,9.75
2019-02-14T00:49:02.806Z,9.55
2019-02-14T00:50:07.871Z,9.60
2019-02-14T00:51:12.660Z,10.05
2019-02-14T00:52:17.651Z,10.55
2019-02-14T00:53:22.600Z,9.58
2019-02-14T00:54:27.593Z,9.65
2019-02-14T00:55:32.395Z,10.68
2019-02-14T00:56:37.670Z,10.35
2019-02-14T00:57:42.621Z,10.10
2019-02-14T00:58:48.226Z,11.25
2019-02-14T00:59:53.791Z,10.68
2019-02-14T01:00:59.079Z,10.35
2019-02-14T01:02:04.080Z,9.75
2019-02-14T01:03:08.824Z,8.60
2019-02-14T01:04:14.108Z,9.65
2019-02-14T01:05:19.374Z,8.95
2019-02-14T01:06:24.616Z,8.95
2019-02-14T01:07:29.571Z,9.48
2019-02-14T01:08:34.551Z,9.33
2019-02-14T01:09:40.110Z,9.23
2019-02-14T01:10:45.390Z,9.08
2019-02-14T01:11:50.651Z,9.03
2019-02-14T01:12:55.758Z,9.30
2019-02-14T01:14:00.955Z,9.55
2019-02-14T01:15:07.154Z,9.60
2019-02-14T01:16:12.168Z,9.60
2019-02-14T01:17:17.415Z,9.88
2019-02-14T01:18:22.747Z,9.03
2019-02-14T01:19:28.082Z,9.95
2019-02-14T01:20:33.096Z,10.00
2019-02-14T01:21:38.325Z,9.20
2019-02-14T01:22:43.896Z,9.15
2019-02-14T01:23:48.640Z,9.45
2019-02-14T01:24:53.890Z,9.20
2019-02-14T01:25:59.160Z,9.50
2019-02-14T01:27:04.081Z,9.53
2019-02-14T01:28:08.756Z,9.28
2019-02-14T01:29:14.029Z,10.10
2019-02-14T01:30:18.731Z,8.90
2019-02-14T01:31:23.975Z,9.65
2019-02-14T01:32:28.960Z,9.43
2019-02-14T01:33:33.669Z,10.18
2019-02-14T01:34:39.224Z,9.45
2019-02-14T01:35:44.345Z,9.55
2019-02-14T01:36:49.503Z,9.35
2019-02-14T01:37:54.278Z,10.35
2019-02-14T01:38:59.443Z,9.10
2019-02-14T01:40:04.670Z,9.33
2019-02-14T01:41:09.642Z,9.63
2019-02-14T01:42:14.950Z,9.40
2019-02-14T01:43:19.932Z,9.88
2019-02-14T01:44:25.467Z,9.75
2019-02-14T01:45:30.945Z,8.58
2019-02-14T01:46:36.208Z,10.13
2019-02-14T01:47:41.738Z,9.48
2019-02-14T01:48:47.193Z,9.50
2019-02-14T01:49:52.436Z,9.68
2019-02-14T01:50:57.678Z,9.40
2019-02-14T01:52:02.960Z,9.48
2019-02-14T01:53:07.655Z,9.70
2019-02-14T01:54:12.358Z,9.48
2019-02-14T01:55:17.335Z,9.43
2019-02-14T01:56:22.355Z,9.10
2019-02-14T01:57:27.330Z,9.65
2019-02-14T01:58:32.728Z,10.45
2019-02-14T01:59:37.701Z,9.70
2019-02-14T02:00:42.385Z,9.75
2019-02-14T02:01:47.972Z,8.75
2019-02-14T02:02:53.067Z,9.73
2019-02-14T02:03:58.336Z,9.25
2019-02-14T02:05:03.304Z,10.03
2019-02-14T02:06:08.059Z,9.68
2019-02-14T02:07:13.303Z,9.95
2019-02-14T02:08:18.743Z,9.48
2019-02-14T02:09:23.731Z,9.38
2019-02-14T02:10:28.685Z,9.38
2019-02-14T02:11:34.058Z,9.58
2019-02-14T02:12:38.502Z,9.15
2019-02-14T02:13:43.786Z,9.58
2019-02-14T02:14:49.079Z,9.63
2019-02-14T02:15:54.123Z,9.15
2019-02-14T02:16:59.355Z,8.55
2019-02-14T02:18:04.593Z,10.00
2019-02-14T02:19:09.311Z,9.00
2019-02-14T02:20:14.103Z,9.53
2019-02-14T02:21:19.070Z,9.73
2019-02-14T02:22:24.179Z,9.03
2019-02-14T02:23:29.180Z,9.58
2019-02-14T02:24:34.160Z,9.13
2019-02-14T02:25:39.816Z,9.75
2019-02-14T02:26:46.326Z,8.83
2019-02-14T02:27:50.930Z,9.03
2019-02-14T02:28:55.914Z,9.43
2019-02-14T02:30:00.907Z,9.13
2019-02-14T02:31:05.349Z,9.48
2019-02-14T02:32:10.591Z,9.35
2019-02-14T02:33:15.087Z,9.38
2019-02-14T02:34:19.862Z,8.90
2019-02-14T02:35:24.603Z,9.08
2019-02-14T02:36:30.149Z,8.38
2019-02-14T02:37:35.118Z,8.93
2019-02-14T02:38:40.342Z,9.08
2019-02-14T02:39:45.620Z,9.60
2019-02-14T02:40:50.608Z,9.23
2019-02-14T02:41:55.552Z,10.03
2019-02-14T02:43:01.089Z,9.43
2019-02-14T02:44:06.640Z,9.25
2019-02-14T02:45:12.803Z,9.70
2019-02-14T02:46:17.941Z,8.93
2019-02-14T02:47:22.937Z,9.60
2019-02-14T02:48:27.966Z,9.30
2019-02-14T02:49:33.232Z,8.90
2019-02-14T02:50:38.213Z,9.28
2019-02-14T02:51:42.903Z,9.45
2019-02-14T02:52:48.498Z,9.88
2019-02-14T02:53:53.442Z,9.28
2019-02-14T02:54:59.017Z,8.93
2019-02-14T02:56:04.046Z,9.50
2019-02-14T02:57:09.331Z,9.23
2019-02-14T02:58:14.060Z,9.50
2019-02-14T02:59:18.505Z,8.53
2019-02-14T03:00:23.761Z,9.43
2019-02-14T03:01:28.749Z,9.60
2019-02-14T03:02:34.011Z,9.38
2019-02-14T03:03:38.974Z,9.40
2019-02-14T03:04:44.552Z,9.90
2019-02-14T03:05:49.427Z,9.48
2019-02-14T03:06:53.870Z,9.63
2019-02-14T03:07:59.117Z,9.68
2019-02-14T03:09:05.517Z,9.28
2019-02-14T03:10:10.600Z,10.08
2019-02-14T03:11:15.858Z,9.45
2019-02-14T03:12:21.097Z,10.15
2019-02-14T03:13:26.355Z,9.65
2019-02-14T03:14:31.644Z,9.65
2019-02-14T03:15:36.615Z,9.15
2019-02-14T03:16:41.569Z,8.93
2019-02-14T03:17:46.548Z,9.68
2019-02-14T03:18:51.645Z,9.33
2019-02-14T03:19:57.528Z,8.68
2019-02-14T03:21:02.497Z,9.10
2019-02-14T03:22:07.510Z,9.38
2019-02-14T03:23:12.539Z,10.13
2019-02-14T03:24:17.568Z,9.18
2019-02-14T03:25:22.545Z,9.08
2019-02-14T03:26:27.828Z,9.33
2019-02-14T03:27:32.511Z,9.20
2019-02-14T03:28:37.495Z,8.95
2019-02-14T03:29:42.494Z,9.85
2019-02-14T03:30:47.012Z,8.95
2019-02-14T03:31:52.258Z,9.20
2019-02-14T03:32:57.561Z,9.55
2019-02-14T03:34:02.835Z,8.80
2019-02-14T03:35:08.008Z,9.78
2019-02-14T03:36:18.905Z,9.25
2019-02-14T03:37:20.534Z,9.73
2019-02-14T03:38:25.501Z,8.68
2019-02-14T03:39:30.774Z,9.45
2019-02-14T03:40:35.856Z,9.73
2019-02-14T03:41:41.117Z,9.05
2019-02-14T03:42:46.375Z,9.03
2019-02-14T03:43:51.363Z,10.03
2019-02-14T03:44:56.920Z,9.25
2019-02-14T03:46:01.913Z,9.35
2019-02-14T03:47:07.157Z,9.75
2019-02-14T03:48:12.118Z,10.32
2019-02-14T03:49:17.431Z,9.80
2019-02-14T03:50:22.946Z,9.05
2019-02-14T03:51:28.203Z,9.55
2019-02-14T03:52:33.698Z,8.88
2019-02-14T03:53:38.770Z,8.25
2019-02-14T03:54:43.766Z,8.83
2019-02-14T03:55:48.541Z,8.75
2019-02-14T03:56:54.065Z,9.30
2019-02-14T03:57:59.331Z,9.43
2019-02-14T03:59:04.433Z,9.73
2019-02-14T04:00:12.052Z,9.00
2019-02-14T04:01:17.322Z,9.48
2019-02-14T04:02:22.587Z,9.20
2019-02-14T04:03:27.550Z,9.15
2019-02-14T04:04:32.862Z,8.63
2019-02-14T04:05:38.440Z,9.60
2019-02-14T04:06:43.670Z,9.05
2019-02-14T04:07:48.990Z,9.70
2019-02-14T04:08:54.383Z,9.90
2019-02-14T04:09:59.635Z,10.13
2019-02-14T04:11:04.992Z,8.58
2019-02-14T04:12:09.979Z,9.35
2019-02-14T04:13:15.359Z,9.13
2019-02-14T04:14:20.655Z,9.63
2019-02-14T04:15:25.641Z,9.48
2019-02-14T04:16:30.906Z,9.25
2019-02-14T04:17:36.181Z,9.30
2019-02-14T04:18:41.138Z,9.15
2019-02-14T04:19:46.340Z,8.70
2019-02-14T04:20:51.813Z,8.63
2019-02-14T04:21:56.779Z,9.18
2019-02-14T04:23:02.012Z,8.93
2019-02-14T04:24:07.068Z,10.28
2019-02-14T04:25:12.059Z,9.50
2019-02-14T04:26:17.372Z,9.70
2019-02-14T04:27:22.642Z,10.03
2019-02-14T04:28:27.830Z,9.75
2019-02-14T04:29:33.083Z,9.73
2019-02-14T04:30:38.452Z,9.35
2019-02-14T04:31:43.130Z,9.80
2019-02-14T04:32:48.211Z,9.55
2019-02-14T04:33:53.802Z,9.88
2019-02-14T04:34:58.483Z,9.83
2019-02-14T04:36:03.549Z,9.63
2019-02-14T04:37:08.839Z,9.53
2019-02-14T04:38:14.100Z,9.75
2019-02-14T04:39:19.706Z,9.60
2019-02-14T04:40:33.255Z,9.98
2019-02-14T04:41:31.696Z,9.85
2019-02-14T04:42:37.292Z,9.88
2019-02-14T04:43:42.520Z,10.43
2019-02-14T04:44:48.071Z,10.98
2019-02-14T04:45:53.108Z,11.22
2019-02-14T04:46:57.814Z,10.88
2019-02-14T04:48:03.217Z,10.45
2019-02-14T04:49:08.430Z,10.40
2019-02-14T04:50:13.542Z,9.83
2019-02-14T04:51:18.852Z,9.23
2019-02-14T04:52:23.835Z,9.88
2019-02-14T04:53:29.110Z,10.13
2019-02-14T04:54:34.081Z,10.13
2019-02-14T04:55:39.358Z,10.32
2019-02-14T04:56:44.376Z,10.03
2019-02-14T04:57:49.713Z,10.38
2019-02-14T04:58:55.273Z,10.38
2019-02-14T05:00:00.849Z,10.30
2019-02-14T05:01:05.845Z,8.95
2019-02-14T05:02:11.122Z,9.43
2019-02-14T05:03:16.166Z,9.40
2019-02-14T05:04:21.389Z,9.50
2019-02-14T05:05:26.631Z,9.90
2019-02-14T05:06:31.330Z,10.32
2019-02-14T05:07:36.556Z,9.73
2019-02-14T05:08:41.327Z,9.60
2019-02-14T05:09:46.324Z,10.25
2019-02-14T05:10:51.299Z,10.53
2019-02-14T05:11:56.880Z,9.25
2019-02-14T05:13:02.191Z,9.53
2019-02-14T05:14:06.673Z,10.03
2019-02-14T05:15:11.673Z,8.93
2019-02-14T05:16:16.942Z,9.98
2019-02-14T05:17:21.948Z,10.23
2019-02-14T05:18:26.975Z,9.88
2019-02-14T05:19:32.245Z,9.80
2019-02-14T05:20:37.513Z,9.80
2019-02-14T05:21:42.794Z,10.00
2019-02-14T05:22:47.781Z,10.00
2019-02-14T05:23:53.377Z,9.80
2019-02-14T05:24:58.662Z,9.03
2019-02-14T05:26:03.409Z,9.55
2019-02-14T05:27:08.732Z,9.75
2019-02-14T05:28:13.745Z,9.98
2019-02-14T05:29:18.735Z,9.78
2019-02-14T05:30:23.699Z,9.75
2019-02-14T05:31:28.688Z,9.75
2019-02-14T05:32:33.942Z,9.75
2019-02-14T05:33:39.402Z,9.78
2019-02-14T05:34:44.663Z,10.08
2019-02-14T05:35:49.315Z,10.30
2019-02-14T05:36:55.364Z,9.53
2019-02-14T05:38:00.727Z,9.98
2019-02-14T05:39:06.053Z,9.83
2019-02-14T05:40:10.866Z,9.55
2019-02-14T05:41:16.405Z,9.15
2019-02-14T05:42:21.082Z,9.88
2019-02-14T05:43:26.007Z,9.98
2019-02-14T05:44:30.967Z,9.83
2019-02-14T05:45:36.210Z,10.13
2019-02-14T05:46:41.220Z,10.93
2019-02-14T05:47:46.462Z,10.28
2019-02-14T05:48:51.444Z,11.18
2019-02-14T05:49:56.152Z,9.80
2019-02-14T05:51:00.834Z,11.03
2019-02-14T05:52:06.100Z,9.70
2019-02-14T05:53:11.353Z,10.18
2019-02-14T05:54:16.625Z,9.73
2019-02-14T05:55:21.343Z,10.28
2019-02-14T05:56:26.597Z,10.08
2019-02-14T05:57:31.851Z,10.23
2019-02-14T05:58:36.842Z,10.10
2019-02-14T05:59:41.738Z,9.48
2019-02-14T06:00:47.083Z,10.82
2019-02-14T06:01:52.031Z,9.88
2019-02-14T06:02:57.268Z,9.90
2019-02-14T06:04:02.237Z,9.68
2019-02-14T06:05:07.388Z,10.05
2019-02-14T06:06:11.821Z,10.40
2019-02-14T06:07:17.366Z,9.68
2019-02-14T06:08:22.684Z,10.70
2019-02-14T06:09:27.451Z,9.68
2019-02-14T06:10:32.648Z,9.35
2019-02-14T06:11:37.595Z,9.80
2019-02-14T06:12:42.399Z,10.43
2019-02-14T06:13:49.671Z,9.95
2019-02-14T06:14:55.222Z,9.50
2019-02-14T06:16:00.537Z,10.50
2019-02-14T06:17:05.782Z,9.83
2019-02-14T06:18:10.744Z,9.40
2019-02-14T06:19:15.692Z,9.40
2019-02-14T06:20:20.659Z,10.35
2019-02-14T06:21:25.733Z,10.45
2019-02-14T06:22:30.726Z,9.88
2019-02-14T06:23:35.095Z,10.13
2019-02-14T06:24:39.592Z,10.35
2019-02-14T06:25:44.618Z,9.65
2019-02-14T06:26:50.153Z,9.40
2019-02-14T06:27:54.583Z,10.30
2019-02-14T06:28:59.714Z,9.43
2019-02-14T06:30:05.260Z,9.63
2019-02-14T06:31:09.927Z,9.78
2019-02-14T06:32:14.937Z,10.10
2019-02-14T06:33:20.194Z,10.08
2019-02-14T06:34:25.216Z,10.58
2019-02-14T06:35:30.793Z,9.98
2019-02-14T06:36:36.645Z,10.43
2019-02-14T06:37:41.811Z,9.90
2019-02-14T06:38:47.138Z,10.25
2019-02-14T06:39:51.844Z,10.20
2019-02-14T06:40:56.880Z,10.18
2019-02-14T06:42:02.129Z,10.30
2019-02-14T06:43:06.575Z,10.30
2019-02-14T06:44:11.254Z,10.38
2019-02-14T06:45:15.996Z,9.90
2019-02-14T06:46:20.969Z,10.13
2019-02-14T06:47:25.648Z,9.95
2019-02-14T06:48:31.203Z,9.50
2019-02-14T06:49:36.498Z,9.95
2019-02-14T06:50:41.728Z,9.28
2019-02-14T06:51:46.997Z,10.13
2019-02-14T06:52:51.998Z,9.53
2019-02-14T06:53:57.237Z,10.35
2019-02-14T06:55:02.506Z,9.63
2019-02-14T06:56:08.083Z,9.38
2019-02-14T06:57:12.950Z,9.60
2019-02-14T06:58:18.225Z,10.03
2019-02-14T06:59:23.488Z,10.20
2019-02-14T07:00:28.890Z,9.65
2019-02-14T07:01:35.531Z,10.03
2019-02-14T07:02:40.278Z,9.83
2019-02-14T07:03:45.205Z,9.75
2019-02-14T07:04:50.714Z,10.63
2019-02-14T07:05:55.735Z,9.80
2019-02-14T07:07:00.435Z,10.00
2019-02-14T07:08:05.821Z,8.83
2019-02-14T07:09:10.576Z,9.40
2019-02-14T07:10:15.875Z,9.93
2019-02-14T07:11:20.928Z,9.20
2019-02-14T07:12:26.391Z,9.48
2019-02-14T07:13:31.367Z,10.13
2019-02-14T07:14:36.436Z,10.30
2019-02-14T07:15:41.896Z,9.30
2019-02-14T07:16:46.596Z,10.05
2019-02-14T07:17:51.555Z,9.65
2019-02-14T07:18:56.578Z,10.03
2019-02-14T07:20:02.116Z,9.18
2019-02-14T07:21:07.120Z,9.65
2019-02-14T07:22:11.555Z,9.50
2019-02-14T07:23:16.181Z,9.68
2019-02-14T07:24:21.405Z,9.98
2019-02-14T07:25:26.147Z,9.33
2019-02-14T07:26:31.227Z,11.05
2019-02-14T07:27:36.446Z,9.85
2019-02-14T07:28:41.468Z,9.95
2019-02-14T07:29:49.241Z,9.58
2019-02-14T07:30:53.686Z,10.10
2019-02-14T07:31:58.965Z,9.83
2019-02-14T07:33:03.949Z,9.53
2019-02-14T07:34:09.219Z,9.43
2019-02-14T07:35:13.672Z,10.15
2019-02-14T07:36:18.641Z,9.70
2019-02-14T07:37:26.794Z,9.65
2019-02-14T07:38:30.323Z,9.88
2019-02-14T07:39:35.559Z,9.20
2019-02-14T07:40:40.521Z,9.95
2019-02-14T07:41:45.788Z,9.48
2019-02-14T07:42:51.073Z,9.70
2019-02-14T07:43:56.452Z,9.58
2019-02-14T07:45:01.466Z,9.10
2019-02-14T07:46:06.808Z,9.38
2019-02-14T07:47:11.767Z,9.93
2019-02-14T07:48:16.753Z,9.23
2019-02-14T07:49:21.437Z,9.15
2019-02-14T07:50:26.449Z,8.80
2019-02-14T07:51:31.693Z,9.00
2019-02-14T07:52:37.262Z,8.93
2019-02-14T07:53:42.259Z,8.98
2019-02-14T07:54:47.317Z,8.75
2019-02-14T07:55:52.602Z,8.83
2019-02-14T07:56:57.341Z,9.50
2019-02-14T07:58:02.618Z,9.65
2019-02-14T07:59:08.149Z,9.35
2019-02-14T08:00:13.709Z,8.85
2019-02-14T08:01:19.201Z,9.38
2019-02-14T08:02:23.923Z,9.35
2019-02-14T08:03:28.634Z,8.78
2019-02-14T08:04:33.335Z,8.68
2019-02-14T08:05:38.030Z,8.48
2019-02-14T08:06:43.287Z,8.85
2019-02-14T08:07:48.153Z,8.43
2019-02-14T08:08:53.236Z,8.45
2019-02-14T08:09:58.472Z,9.30
2019-02-14T08:11:03.796Z,9.60
2019-02-14T08:12:08.483Z,8.83
2019-02-14T08:13:13.206Z,8.58
2019-02-14T08:14:18.190Z,9.43
2019-02-14T08:15:23.463Z,8.43
2019-02-14T08:16:28.700Z,8.58
2019-02-14T08:17:33.776Z,8.35
2019-02-14T08:18:39.168Z,8.43
2019-02-14T08:19:44.753Z,8.00
2019-02-14T08:20:50.075Z,8.23
2019-02-14T08:21:55.320Z,8.40
2019-02-14T08:23:00.043Z,8.40
2019-02-14T08:24:05.306Z,8.58
2019-02-14T08:25:11.079Z,8.23
2019-02-14T08:26:16.061Z,8.30
2019-02-14T08:27:20.794Z,8.68
2019-02-14T08:28:26.039Z,8.20
2019-02-14T08:29:30.763Z,8.10
2019-02-14T08:30:36.063Z,7.83
2019-02-14T08:31:41.599Z,8.03
2019-02-14T08:32:47.099Z,8.05
2019-02-14T08:33:52.504Z,8.43
2019-02-14T08:34:58.041Z,8.60
2019-02-14T08:36:03.040Z,8.63
2019-02-14T08:37:07.738Z,8.45
2019-02-14T08:38:13.028Z,7.92
2019-02-14T08:39:18.259Z,8.20
2019-02-14T08:40:24.103Z,7.83
2019-02-14T08:41:28.796Z,8.40
2019-02-14T08:42:33.475Z,8.13
2019-02-14T08:43:38.179Z,7.40
2019-02-14T08:44:42.969Z,8.80
2019-02-14T08:45:47.948Z,8.50
2019-02-14T08:46:53.227Z,8.15
2019-02-14T08:47:57.906Z,8.28
2019-02-14T08:49:03.245Z,7.92
2019-02-14T08:50:08.149Z,8.18
2019-02-14T08:51:12.856Z,7.90
2019-02-14T08:52:17.872Z,8.70
2019-02-14T08:53:22.870Z,8.38
2019-02-14T08:54:27.847Z,8.20
2019-02-14T08:55:32.233Z,8.35
2019-02-14T08:56:37.503Z,7.95
2019-02-14T08:57:42.865Z,7.65
2019-02-14T08:58:47.636Z,8.55
2019-02-14T08:59:52.881Z,7.92
2019-02-14T09:00:57.588Z,8.10
2019-02-14T09:02:02.848Z,9.95
2019-02-14T09:03:07.864Z,7.95
2019-02-14T09:04:12.516Z,7.90
2019-02-14T09:05:17.786Z,8.35
2019-02-14T09:06:22.752Z,7.97
2019-02-14T09:07:28.023Z,7.85
2019-02-14T09:08:33.269Z,8.80
2019-02-14T09:09:38.592Z,8.88
2019-02-14T09:10:43.870Z,7.62
2019-02-14T09:11:48.915Z,7.72
2019-02-14T09:12:54.114Z,7.72
2019-02-14T09:13:59.113Z,7.45
2019-02-14T09:15:04.173Z,7.97
2019-02-14T09:16:09.177Z,7.20
2019-02-14T09:17:14.196Z,7.75
2019-02-14T09:18:18.865Z,7.40
2019-02-14T09:19:24.105Z,8.43
2019-02-14T09:20:28.771Z,7.03
2019-02-14T09:21:34.326Z,7.65
2019-02-14T09:22:39.340Z,7.90
2019-02-14T09:23:43.784Z,8.40
2019-02-14T09:24:48.624Z,7.50
2019-02-14T09:25:53.598Z,7.75
2019-02-14T09:26:58.549Z,7.17
2019-02-14T09:28:03.278Z,7.95
2019-02-14T09:29:08.539Z,7.90
2019-02-14T09:30:13.268Z,7.75
2019-02-14T09:31:19.527Z,7.87
2019-02-14T09:32:26.479Z,7.20
2019-02-14T09:33:32.017Z,8.03
2019-02-14T09:34:36.762Z,8.08
2019-02-14T09:35:44.070Z,7.72
2019-02-14T09:36:49.333Z,7.55
2019-02-14T09:38:02.751Z,7.53
2019-02-14T09:39:01.089Z,7.37
2019-02-14T09:40:07.306Z,7.62
2019-02-14T09:41:11.998Z,6.97
2019-02-14T09:42:16.984Z,6.65
2019-02-14T09:43:29.670Z,7.70
2019-02-14T09:44:28.692Z,7.42
2019-02-14T09:45:33.674Z,7.33
2019-02-14T09:46:39.188Z,6.87
2019-02-14T09:47:44.921Z,7.90
2019-02-14T09:48:49.950Z,7.50
2019-02-14T09:49:55.227Z,6.92
2019-02-14T09:51:00.188Z,7.00
2019-02-14T09:52:05.178Z,7.92
2019-02-14T09:53:10.437Z,6.47
2019-02-14T09:54:15.385Z,6.92
2019-02-14T09:55:20.991Z,6.60
2019-02-14T09:56:25.806Z,7.42
2019-02-14T09:57:30.495Z,6.97
2019-02-14T09:58:35.570Z,7.20
2019-02-14T09:59:40.513Z,6.75
2019-02-14T10:00:45.565Z,7.42
2019-02-14T10:01:50.480Z,6.50
2019-02-14T10:02:55.471Z,7.10
2019-02-14T10:04:00.753Z,6.92
2019-02-14T10:05:05.500Z,5.87
2019-02-14T10:06:10.208Z,7.45
2019-02-14T10:07:15.239Z,7.10
2019-02-14T10:08:20.004Z,6.97
2019-02-14T10:09:24.691Z,7.05
2019-02-14T10:10:29.505Z,7.58
2019-02-14T10:11:34.740Z,7.05
2019-02-14T10:12:39.718Z,6.60
2019-02-14T10:13:44.174Z,6.17
2019-02-14T10:14:49.523Z,6.42
2019-02-14T10:15:54.479Z,6.75
2019-02-14T10:16:59.733Z,6.80
2019-02-14T10:18:04.995Z,7.20
2019-02-14T10:19:10.054Z,6.42
2019-02-14T10:20:15.892Z,6.60
2019-02-14T10:21:21.464Z,6.85
2019-02-14T10:22:26.437Z,6.75
2019-02-14T10:23:31.414Z,7.00
2019-02-14T10:24:36.435Z,7.95
2019-02-14T10:25:41.985Z,6.20
2019-02-14T10:26:46.969Z,7.35
2019-02-14T10:27:52.047Z,6.85
2019-02-14T10:28:57.449Z,6.25
2019-02-14T10:30:03.001Z,7.37
2019-02-14T10:31:08.003Z,7.25
2019-02-14T10:32:12.448Z,7.10
2019-02-14T10:33:17.668Z,6.47
2019-02-14T10:34:23.182Z,6.87
2019-02-14T10:35:28.159Z,6.60
2019-02-14T10:36:33.410Z,7.12
2019-02-14T10:37:38.682Z,7.10
2019-02-14T10:38:43.714Z,7.08
2019-02-14T10:39:48.780Z,6.55
2019-02-14T10:40:53.778Z,6.50
2019-02-14T10:41:58.491Z,6.50
2019-02-14T10:43:03.745Z,6.50
2019-02-14T10:44:08.731Z,6.78
2019-02-14T10:45:15.615Z,6.17
2019-02-14T10:46:20.290Z,6.45
2019-02-14T10:47:25.275Z,6.42
2019-02-14T10:48:30.704Z,6.12
2019-02-14T10:49:35.653Z,7.42
2019-02-14T10:50:40.775Z,6.58
2019-02-14T10:51:45.206Z,6.30
2019-02-14T10:52:51.015Z,7.17
2019-02-14T10:53:56.563Z,6.83
2019-02-14T10:55:01.517Z,6.08
2019-02-14T10:56:07.227Z,6.37
2019-02-14T10:57:12.175Z,6.22
2019-02-14T10:58:16.641Z,6.83
2019-02-14T10:59:21.623Z,6.25
2019-02-14T11:00:26.669Z,6.30
2019-02-14T11:01:31.981Z,6.12
2019-02-14T11:02:36.735Z,6.10
2019-02-14T11:03:41.971Z,6.08
2019-02-14T11:04:47.268Z,6.28
2019-02-14T11:05:52.288Z,6.17
2019-02-14T11:06:57.541Z,6.45
2019-02-14T11:08:02.519Z,5.55
2019-02-14T11:09:08.274Z,6.45
2019-02-14T11:10:13.013Z,6.15
2019-02-14T11:11:18.423Z,5.95
2019-02-14T11:12:23.871Z,6.58
2019-02-14T11:13:29.213Z,6.50
2019-02-14T11:14:34.442Z,6.05
2019-02-14T11:15:39.717Z,5.95
2019-02-14T11:16:44.694Z,5.72
2019-02-14T11:17:49.854Z,6.10
2019-02-14T11:18:55.125Z,6.17
2019-02-14T11:19:59.801Z,5.83
2019-02-14T11:21:04.793Z,6.67
2019-02-14T11:22:10.314Z,5.47
2019-02-14T11:23:15.853Z,6.08
2019-02-14T11:24:21.525Z,5.50
2019-02-14T11:25:31.066Z,5.12
2019-02-14T11:26:35.787Z,5.37
2019-02-14T11:27:40.232Z,5.00
2019-02-14T11:28:45.227Z,4.90
2019-02-14T11:29:50.653Z,4.70
2019-02-14T11:30:55.866Z,5.10
2019-02-14T11:32:01.151Z,4.87
2019-02-14T11:33:06.125Z,4.87
2019-02-14T11:34:11.340Z,4.72
2019-02-14T11:35:16.625Z,4.78
2019-02-14T11:36:21.890Z,4.47
2019-02-14T11:37:26.623Z,4.92
2019-02-14T11:38:40.199Z,4.67
2019-02-14T11:39:39.110Z,4.53
2019-02-14T11:40:44.341Z,4.53
2019-02-14T11:41:52.147Z,4.30
2019-02-14T11:42:57.115Z,5.20
2019-02-14T11:44:02.905Z,4.85
2019-02-14T11:45:09.807Z,4.42
2019-02-14T11:46:14.784Z,4.53
2019-02-14T11:47:19.732Z,4.58
2019-02-14T11:48:24.747Z,4.75
2019-02-14T11:49:29.435Z,4.75
2019-02-14T11:50:34.454Z,4.83
2019-02-14T11:51:38.938Z,5.25
2019-02-14T11:52:44.158Z,4.70
2019-02-14T11:53:49.187Z,4.70
2019-02-14T11:54:54.169Z,4.90
2019-02-14T11:55:58.910Z,5.12
2019-02-14T11:57:03.904Z,5.03
2019-02-14T11:58:09.438Z,5.12
2019-02-14T11:59:14.770Z,5.00
2019-02-14T12:00:22.178Z,4.92
2019-02-14T12:01:27.427Z,4.60
2019-02-14T12:02:32.703Z,4.97
2019-02-14T12:03:38.247Z,5.42
2019-02-14T12:04:43.549Z,5.12
2019-02-14T12:05:50.753Z,5.20
2019-02-14T12:06:55.776Z,5.95
2019-02-14T12:08:01.009Z,5.30
2019-02-14T12:09:07.153Z,4.17
2019-02-14T12:10:13.825Z,4.95
2019-02-14T12:11:18.930Z,4.60
2019-02-14T12:12:25.789Z,4.78
2019-02-14T12:13:30.334Z,4.70
2019-02-14T12:14:35.096Z,4.70
2019-02-14T12:15:40.062Z,4.50
2019-02-14T12:16:44.822Z,4.60
2019-02-14T12:17:50.235Z,4.58
2019-02-14T12:18:55.501Z,4.67
2019-02-14T12:20:00.377Z,4.47
2019-02-14T12:21:05.379Z,4.75
2019-02-14T12:22:10.164Z,4.33
2019-02-14T12:23:15.465Z,4.35
2019-02-14T12:24:20.131Z,3.72
2019-02-14T12:25:24.639Z,4.55
2019-02-14T12:26:29.323Z,4.45
2019-02-14T12:27:34.297Z,4.50
2019-02-14T12:28:39.543Z,4.67
2019-02-14T12:29:44.247Z,4.70
2019-02-14T12:30:52.294Z,4.30
2019-02-14T12:31:57.716Z,5.03
2019-02-14T12:33:02.406Z,4.22
2019-02-14T12:34:08.079Z,4.83
2019-02-14T12:35:12.772Z,4.53
2019-02-14T12:36:18.067Z,4.03
2019-02-14T12:37:22.788Z,4.53
2019-02-14T12:38:27.744Z,4.75
2019-02-14T12:39:33.026Z,4.35
2019-02-14T12:40:38.574Z,4.28
2019-02-14T12:41:44.077Z,4.78
2019-02-14T12:42:48.882Z,4.90
2019-02-14T12:43:54.849Z,4.37
2019-02-14T12:45:00.416Z,4.42
2019-02-14T12:46:05.399Z,4.80
2019-02-14T12:47:10.420Z,5.33
2019-02-14T12:48:15.378Z,4.40
2019-02-14T12:49:20.725Z,4.37
2019-02-14T12:50:25.762Z,4.42
2019-02-14T12:51:30.771Z,4.28
2019-02-14T12:52:35.758Z,4.65
2019-02-14T12:53:41.049Z,4.37
2019-02-14T12:54:46.096Z,4.50
2019-02-14T12:55:51.707Z,4.53
2019-02-14T12:56:57.015Z,4.28
2019-02-14T12:58:02.407Z,4.45
2019-02-14T12:59:07.933Z,4.22
2019-02-14T13:00:16.142Z,4.62
2019-02-14T13:01:21.997Z,4.17
2019-02-14T13:02:27.196Z,4.97
2019-02-14T13:03:32.167Z,4.42
2019-02-14T13:04:37.410Z,4.47
2019-02-14T13:05:42.396Z,4.40
2019-02-14T13:06:47.386Z,4.03
2019-02-14T13:07:52.620Z,4.00
2019-02-14T13:08:57.859Z,3.90
2019-02-14T13:10:03.382Z,4.70
2019-02-14T13:11:08.407Z,4.28
2019-02-14T13:12:13.101Z,4.10
2019-02-14T13:13:17.825Z,4.22
2019-02-14T13:14:23.342Z,4.50
2019-02-14T13:15:28.313Z,4.10
2019-02-14T13:16:33.281Z,4.42
2019-02-14T13:17:38.289Z,5.00
2019-02-14T13:18:43.249Z,4.30
2019-02-14T13:19:50.198Z,4.58
2019-02-14T13:20:56.961Z,4.10
2019-02-14T13:22:02.237Z,4.75
2019-02-14T13:23:07.222Z,4.50
2019-02-14T13:24:11.985Z,4.78
2019-02-14T13:25:17.344Z,4.37
2019-02-14T13:26:22.592Z,4.12
2019-02-14T13:27:27.524Z,4.53
2019-02-14T13:28:32.524Z,4.37
2019-02-14T13:29:37.456Z,4.58
2019-02-14T13:30:42.559Z,4.30
2019-02-14T13:31:48.088Z,4.40
2019-02-14T13:32:52.845Z,4.15
2019-02-14T13:33:58.872Z,4.10
2019-02-14T13:35:04.041Z,4.37
2019-02-14T13:36:09.528Z,4.17
2019-02-14T13:37:14.253Z,4.75
2019-02-14T13:38:20.863Z,4.30
2019-02-14T13:39:29.708Z,3.95
2019-02-14T13:40:33.090Z,4.30
2019-02-14T13:41:40.311Z,4.00
2019-02-14T13:42:45.191Z,4.22
2019-02-14T13:43:50.393Z,4.20
2019-02-14T13:44:55.637Z,3.87
2019-02-14T13:46:00.683Z,4.10
2019-02-14T13:47:09.549Z,3.50
2019-02-14T13:48:14.742Z,3.85
2019-02-14T13:49:19.961Z,3.55
2019-02-14T13:50:25.236Z,3.25
2019-02-14T13:51:30.495Z,3.75
2019-02-14T13:52:36.246Z,3.90
2019-02-14T13:53:41.350Z,3.60
2019-02-14T13:54:46.481Z,3.50
2019-02-14T13:55:51.423Z,3.72
2019-02-14T13:56:56.159Z,3.80
2019-02-14T13:58:00.891Z,3.17
2019-02-14T13:59:06.114Z,3.42
2019-02-14T14:00:17.546Z,3.42
2019-02-14T14:01:23.615Z,3.80
2019-02-14T14:02:28.577Z,3.42
2019-02-14T14:03:33.826Z,3.10
2019-02-14T14:04:39.103Z,2.92
2019-02-14T14:05:44.102Z,2.92
2019-02-14T14:06:49.537Z,3.40
2019-02-14T14:07:54.493Z,3.27
2019-02-14T14:08:59.442Z,3.20
2019-02-14T14:10:04.184Z,3.15
2019-02-14T14:11:09.135Z,3.50
2019-02-14T14:12:14.393Z,3.35
2019-02-14T14:13:19.076Z,3.22
2019-02-14T14:14:23.741Z,3.05
2019-02-14T14:15:28.726Z,3.33
2019-02-14T14:16:33.494Z,3.37
2019-02-14T14:17:38.494Z,3.17
2019-02-14T14:18:43.736Z,3.12
2019-02-14T14:19:48.770Z,3.20
2019-02-14T14:20:53.745Z,3.30
2019-02-14T14:21:58.464Z,3.30
2019-02-14T14:23:03.403Z,3.27
2019-02-14T14:24:08.669Z,3.02